Time;durP1;ratioP1;P1;durP2;ratioP2;P2;SDS_P1;SDS_P2;PMS_P1;PMS_P2;Temp;Humidity;BMP_temperature;BMP_pressure;BME280_temperature;BME280_humidity;BME280_pressure;Samples;Min_cycle;Max_cycle;Signal;HPM_P1;HPM_P2
2022/04/29 00:01:02;;;;;;;11.20;9.00;;;10.80;99.90;;;;;;5054206;28;20506;-79
2022/04/29 00:03:29;;;;;;;11.30;8.83;;;10.80;99.90;;;;;;5054243;28;20465;-79
2022/04/29 00:05:56;;;;;;;15.47;10.37;;;10.70;99.90;;;;;;5054537;28;20820;-79
2022/04/29 00:08:23;;;;;;;15.00;9.30;;;10.60;99.90;;;;;;5054078;28;20469;-80
2022/04/29 00:10:50;;;;;;;13.97;9.40;;;10.60;99.90;;;;;;5053555;28;20474;-79
2022/04/29 00:13:18;;;;;;;13.20;9.43;;;10.50;99.90;;;;;;5054399;28;20455;-79
2022/04/29 00:15:45;;;;;;;13.60;8.73;;;10.50;99.90;;;;;;5054832;28;20448;-79
2022/04/29 00:18:12;;;;;;;12.53;9.03;;;10.40;99.90;;;;;;5053709;28;20787;-79
2022/04/29 00:20:39;;;;;;;15.97;9.70;;;10.30;99.90;;;;;;5056285;28;20448;-78
2022/04/29 00:23:06;;;;;;;14.20;9.73;;;10.30;99.90;;;;;;5058029;28;20451;-80
2022/04/29 00:25:33;;;;;;;11.33;9.77;;;10.30;99.90;;;;;;5058132;28;20459;-78
2022/04/29 00:28:00;;;;;;;14.30;9.60;;;10.30;99.90;;;;;;5057553;28;20818;-78
2022/04/29 00:30:28;;;;;;;13.30;10.50;;;10.20;99.90;;;;;;5058102;28;20455;-80
2022/04/29 00:32:55;;;;;;;13.83;8.97;;;10.20;99.90;;;;;;5058369;28;20959;-78
2022/04/29 00:35:22;;;;;;;10.93;9.40;;;10.20;99.90;;;;;;5058585;28;20490;-79
2022/04/29 00:37:51;;;;;;;14.70;10.30;;;10.20;99.90;;;;;;5057677;28;20458;-78
2022/04/29 00:40:20;;;;;;;13.57;9.20;;;10.20;99.90;;;;;;5058567;28;20452;-79
2022/04/29 00:42:48;;;;;;;11.07;8.43;;;10.20;99.90;;;;;;5057347;28;20455;-79
2022/04/29 00:45:17;;;;;;;12.37;9.93;;;10.20;99.90;;;;;;5057474;28;20553;-79
2022/04/29 00:47:47;;;;;;;12.10;9.10;;;10.20;99.90;;;;;;5058008;28;20463;-79
2022/04/29 00:50:16;;;;;;;14.57;9.40;;;10.20;99.90;;;;;;5056800;28;20483;-78
2022/04/29 00:52:46;;;;;;;12.87;9.57;;;10.10;99.90;;;;;;5042251;28;20517;-79
2022/04/29 00:55:14;;;;;;;13.57;9.30;;;10.10;99.90;;;;;;5058916;28;20494;-79
2022/04/29 00:57:45;;;;;;;12.30;8.43;;;10.10;99.90;;;;;;5061668;28;20526;-79
2022/04/29 01:00:15;;;;;;;12.63;9.13;;;10.10;99.90;;;;;;5060945;28;20455;-80
2022/04/29 01:02:43;;;;;;;11.60;8.80;;;10.10;99.90;;;;;;5062278;28;20448;-80
2022/04/29 01:05:13;;;;;;;13.23;9.13;;;10.10;99.90;;;;;;5062870;28;20464;-80
2022/04/29 01:07:41;;;;;;;12.23;9.60;;;10.00;99.90;;;;;;5062204;28;20450;-80
2022/04/29 01:10:11;;;;;;;12.93;10.20;;;9.90;99.90;;;;;;5065910;28;20472;-80
2022/04/29 01:12:40;;;;;;;14.03;10.10;;;9.90;99.90;;;;;;5060871;28;20490;-80
2022/04/29 01:15:09;;;;;;;17.90;10.00;;;9.80;99.90;;;;;;5059181;28;20497;-80
2022/04/29 01:17:39;;;;;;;12.40;10.23;;;9.70;99.90;;;;;;5057360;28;20460;-80
2022/04/29 01:20:07;;;;;;;16.27;10.90;;;9.70;99.90;;;;;;5058053;28;20463;-79
2022/04/29 01:22:35;;;;;;;11.90;8.87;;;9.70;99.90;;;;;;5059561;28;20459;-79
2022/04/29 01:25:03;;;;;;;16.60;10.13;;;9.60;99.90;;;;;;5058294;28;20477;-80
2022/04/29 01:27:30;;;;;;;15.10;10.77;;;9.50;99.90;;;;;;5056528;28;20520;-80
2022/04/29 01:30:02;;;;;;;14.53;9.40;;;9.50;99.90;;;;;;5056420;28;20451;-79
2022/04/29 01:32:30;;;;;;;12.47;10.60;;;9.40;99.90;;;;;;5056392;28;20457;-80
2022/04/29 01:34:56;;;;;;;10.60;9.03;;;9.30;99.90;;;;;;5057939;28;20489;-80
2022/04/29 01:37:23;;;;;;;11.93;8.90;;;9.30;99.90;;;;;;5058537;28;20461;-80
2022/04/29 01:39:51;;;;;;;13.60;8.70;;;9.30;99.90;;;;;;5056995;28;20516;-80
2022/04/29 01:42:19;;;;;;;15.80;9.50;;;9.10;99.90;;;;;;5056540;28;20512;-79
2022/04/29 01:44:46;;;;;;;10.20;8.20;;;9.10;99.90;;;;;;5056682;28;20473;-79
2022/04/29 01:47:13;;;;;;;12.73;8.70;;;9.10;99.90;;;;;;5057498;28;20458;-78
2022/04/29 01:49:40;;;;;;;14.70;7.80;;;9.10;99.90;;;;;;5056311;28;20640;-79
2022/04/29 01:52:08;;;;;;;9.70;8.27;;;9.10;99.90;;;;;;5057536;28;20453;-80
2022/04/29 01:54:35;;;;;;;12.70;8.47;;;9.00;99.90;;;;;;5057206;28;20488;-81
2022/04/29 01:57:04;;;;;;;12.37;8.33;;;8.90;99.90;;;;;;5056748;28;20982;-77
2022/04/29 01:59:32;;;;;;;11.23;8.30;;;8.90;99.90;;;;;;5057134;28;20451;-78
2022/04/29 02:01:59;;;;;;;11.90;8.03;;;8.90;99.90;;;;;;5056163;28;20978;-78
2022/04/29 02:04:26;;;;;;;12.63;8.70;;;9.00;99.90;;;;;;5053595;28;20469;-80
2022/04/29 02:06:53;;;;;;;14.07;8.73;;;8.90;99.90;;;;;;5053777;28;20472;-78
2022/04/29 02:09:19;;;;;;;13.37;9.10;;;8.90;99.90;;;;;;5053127;28;20856;-79
2022/04/29 02:14:29;;;;;;;12.27;7.30;;;8.90;99.90;;;;;;5052506;28;20474;-77
2022/04/29 02:16:56;;;;;;;9.97;7.80;;;8.80;99.90;;;;;;5053455;28;20453;-79
2022/04/29 02:19:24;;;;;;;16.17;8.03;;;8.80;99.90;;;;;;5052871;28;20507;-78
2022/04/29 02:21:51;;;;;;;15.27;9.77;;;8.80;99.90;;;;;;5053774;28;20547;-79
2022/04/29 02:24:19;;;;;;;11.30;7.83;;;8.80;99.90;;;;;;5052854;28;20473;-80
2022/04/29 02:26:46;;;;;;;18.10;9.33;;;8.70;99.90;;;;;;5053072;28;20550;-78
2022/04/29 02:29:13;;;;;;;11.10;8.00;;;8.70;99.90;;;;;;5052761;28;21129;-79
2022/04/29 02:31:41;;;;;;;14.23;10.30;;;8.70;99.90;;;;;;5052602;28;20455;-78
2022/04/29 02:34:08;;;;;;;16.20;9.80;;;8.60;99.90;;;;;;5052902;28;20474;-78
2022/04/29 02:36:35;;;;;;;13.27;8.40;;;8.50;99.90;;;;;;5053981;28;20457;-78
2022/04/29 02:39:03;;;;;;;9.10;7.23;;;8.60;99.90;;;;;;5053222;28;20459;-79
2022/04/29 02:41:30;;;;;;;14.33;8.20;;;8.60;99.90;;;;;;5054348;28;20453;-80
2022/04/29 02:43:56;;;;;;;14.40;7.10;;;8.60;99.90;;;;;;5053296;28;20470;-79
2022/04/29 02:46:23;;;;;;;11.27;7.57;;;8.50;99.90;;;;;;5053523;28;20632;-78
2022/04/29 02:48:51;;;;;;;12.33;7.77;;;8.60;99.90;;;;;;5052815;28;20962;-79
2022/04/29 02:51:18;;;;;;;11.13;7.00;;;8.60;99.90;;;;;;5052762;28;20873;-78
2022/04/29 02:53:45;;;;;;;12.00;7.83;;;8.50;99.90;;;;;;5033305;28;20496;-80
2022/04/29 02:56:12;;;;;;;8.43;6.83;;;8.40;99.90;;;;;;5033384;28;20480;-79
2022/04/29 02:58:39;;;;;;;8.43;6.10;;;8.40;99.90;;;;;;5051354;28;20483;-78
2022/04/29 03:01:05;;;;;;;7.53;6.73;;;8.40;99.90;;;;;;5053383;28;20457;-80
2022/04/29 03:03:32;;;;;;;10.00;7.53;;;8.30;99.90;;;;;;5053172;28;20473;-80
2022/04/29 03:06:00;;;;;;;11.17;6.70;;;8.30;99.90;;;;;;5055902;28;20454;-79
2022/04/29 03:08:27;;;;;;;12.73;7.17;;;8.30;99.90;;;;;;5052397;28;20450;-78
2022/04/29 03:10:54;;;;;;;10.53;6.13;;;8.40;99.90;;;;;;5052834;28;20555;-80
2022/04/29 03:13:20;;;;;;;8.00;5.73;;;8.40;99.90;;;;;;5053005;28;20459;-79
2022/04/29 03:15:47;;;;;;;9.30;6.30;;;8.30;99.90;;;;;;5052892;28;20487;-79
2022/04/29 03:18:22;;;;;;;9.70;6.60;;;8.30;99.90;;;;;;5052406;28;20483;-78
2022/04/29 03:20:50;;;;;;;9.40;6.13;;;8.30;99.90;;;;;;5052528;28;20457;-79
2022/04/29 03:23:18;;;;;;;9.03;5.97;;;8.30;99.90;;;;;;5052555;28;20472;-79
2022/04/29 03:25:45;;;;;;;12.43;7.03;;;8.30;99.90;;;;;;5052974;28;20546;-79
2022/04/29 03:28:12;;;;;;;8.23;6.30;;;8.30;99.90;;;;;;5052268;28;20992;-80
2022/04/29 03:30:39;;;;;;;11.00;5.70;;;8.30;99.90;;;;;;5052642;28;20457;-77
2022/04/29 03:33:07;;;;;;;7.90;6.00;;;8.30;99.90;;;;;;5053240;28;20488;-79
2022/04/29 03:35:39;;;;;;;8.47;6.40;;;8.20;99.90;;;;;;5052774;28;20481;-79
2022/04/29 03:38:06;;;;;;;13.43;8.43;;;8.20;99.90;;;;;;5051994;28;20460;-78
2022/04/29 03:40:35;;;;;;;10.73;5.50;;;8.20;99.90;;;;;;5052890;28;20506;-78
2022/04/29 03:43:02;;;;;;;11.47;6.47;;;8.20;99.90;;;;;;5052750;28;20476;-78
2022/04/29 03:45:29;;;;;;;8.13;6.10;;;8.10;99.90;;;;;;5051848;28;20450;-78
2022/04/29 03:47:56;;;;;;;16.03;6.73;;;8.10;99.90;;;;;;5052656;28;20833;-80
2022/04/29 03:50:23;;;;;;;9.17;6.27;;;8.10;99.90;;;;;;5052129;28;20838;-78
2022/04/29 03:52:52;;;;;;;8.80;5.63;;;8.10;99.90;;;;;;5052825;28;20496;-80
2022/04/29 03:55:19;;;;;;;8.70;6.03;;;8.10;99.90;;;;;;5053708;28;20501;-78
2022/04/29 03:57:47;;;;;;;9.57;6.00;;;8.00;99.90;;;;;;5056398;28;20453;-79
2022/04/29 04:00:15;;;;;;;9.70;6.33;;;8.00;99.90;;;;;;5056284;28;20463;-78
2022/04/29 04:02:42;;;;;;;11.87;6.77;;;8.00;99.90;;;;;;5055729;28;20535;-79
2022/04/29 04:05:10;;;;;;;10.00;6.50;;;7.80;99.90;;;;;;5055627;28;20474;-76
2022/04/29 04:07:38;;;;;;;10.20;5.90;;;7.90;99.90;;;;;;5055596;28;20489;-78
2022/04/29 04:10:05;;;;;;;11.23;6.20;;;7.90;99.90;;;;;;5055527;28;20978;-79
2022/04/29 04:12:39;;;;;;;10.73;6.90;;;7.90;99.90;;;;;;5056065;28;20947;-78
2022/04/29 04:15:09;;;;;;;13.70;6.20;;;7.80;99.90;;;;;;5056273;28;20488;-79
2022/04/29 04:17:35;;;;;;;11.20;7.20;;;7.80;99.90;;;;;;5053759;28;20456;-79
2022/04/29 04:20:03;;;;;;;12.70;6.30;;;7.80;99.90;;;;;;5056074;28;20470;-80
2022/04/29 04:22:30;;;;;;;10.07;6.63;;;7.70;99.90;;;;;;5055997;28;20502;-79
2022/04/29 04:24:59;;;;;;;11.93;7.70;;;7.70;99.90;;;;;;5055944;28;20484;-79
2022/04/29 04:27:26;;;;;;;12.27;7.93;;;7.80;99.90;;;;;;5055977;28;20455;-79
2022/04/29 04:29:52;;;;;;;11.23;7.47;;;7.80;99.90;;;;;;5055693;28;20834;-79
2022/04/29 04:32:21;;;;;;;13.23;6.83;;;7.80;99.90;;;;;;5055703;28;20462;-80
2022/04/29 04:34:50;;;;;;;15.83;7.60;;;7.90;99.90;;;;;;5057087;28;20467;-79
2022/04/29 04:37:18;;;;;;;16.33;7.20;;;7.90;99.90;;;;;;5056339;28;20459;-79
2022/04/29 04:39:45;;;;;;;11.57;7.00;;;7.90;99.90;;;;;;5056463;28;20460;-80
2022/04/29 04:42:12;;;;;;;12.97;8.20;;;8.00;99.90;;;;;;5056210;28;20452;-80
2022/04/29 04:44:39;;;;;;;10.60;7.40;;;8.10;99.90;;;;;;5057283;28;20976;-79
2022/04/29 04:47:06;;;;;;;9.67;6.90;;;8.10;99.90;;;;;;5055557;28;20958;-80
2022/04/29 04:49:35;;;;;;;16.00;8.27;;;8.10;99.90;;;;;;5055287;28;20455;-80
2022/04/29 04:52:02;;;;;;;10.03;7.40;;;8.10;99.90;;;;;;5055502;28;20961;-80
2022/04/29 04:54:28;;;;;;;13.47;7.80;;;8.10;99.90;;;;;;5055335;28;20484;-80
2022/04/29 04:56:55;;;;;;;9.30;6.90;;;8.20;99.90;;;;;;5051446;28;20519;-80
2022/04/29 04:59:22;;;;;;;14.43;7.80;;;8.30;99.90;;;;;;5056256;28;20456;-80
2022/04/29 05:01:49;;;;;;;15.20;7.40;;;8.40;99.90;;;;;;5055536;28;20839;-80
2022/04/29 05:04:15;;;;;;;17.87;8.50;;;8.40;99.90;;;;;;5055695;28;20467;-79
2022/04/29 05:06:45;;;;;;;14.37;6.67;;;8.40;99.90;;;;;;5053872;28;20452;-78
2022/04/29 05:09:11;;;;;;;14.83;8.00;;;8.40;99.90;;;;;;5053684;28;20444;-79
2022/04/29 05:11:39;;;;;;;14.50;8.40;;;8.40;99.90;;;;;;5047569;28;20499;-79
2022/04/29 05:14:06;;;;;;;16.80;8.33;;;8.50;99.90;;;;;;5051181;28;20473;-79
2022/04/29 05:16:33;;;;;;;11.10;8.17;;;8.60;99.90;;;;;;5047923;28;20524;-78
2022/04/29 05:19:00;;;;;;;13.57;8.40;;;8.70;99.90;;;;;;5051329;28;20498;-78
2022/04/29 05:21:26;;;;;;;12.93;8.67;;;8.70;99.90;;;;;;5048527;28;20448;-78
2022/04/29 05:23:55;;;;;;;16.63;8.80;;;8.80;99.90;;;;;;5046009;28;20485;-78
2022/04/29 05:26:22;;;;;;;15.30;9.13;;;8.80;99.90;;;;;;5071808;28;20457;-78
2022/04/29 05:28:48;;;;;;;13.87;9.13;;;8.70;99.90;;;;;;5053326;28;20503;-79
2022/04/29 05:31:16;;;;;;;14.20;9.30;;;8.70;99.90;;;;;;5051207;28;20545;-78
2022/04/29 05:33:43;;;;;;;15.33;9.10;;;8.70;99.90;;;;;;5052366;28;20472;-79
2022/04/29 05:36:12;;;;;;;13.83;8.77;;;8.90;99.90;;;;;;5051683;28;20497;-80
2022/04/29 05:44:09;;;;;;;13.33;9.73;;;8.80;99.90;;;;;;5053558;28;20461;-80
2022/04/29 05:46:36;;;;;;;13.63;9.10;;;8.80;99.90;;;;;;5054847;28;20458;-80
2022/04/29 05:49:04;;;;;;;14.90;8.60;;;8.70;99.90;;;;;;5050317;28;20464;-79
2022/04/29 05:51:31;;;;;;;15.43;10.80;;;8.80;99.90;;;;;;5033385;28;20480;-79
2022/04/29 05:54:00;;;;;;;13.67;9.27;;;8.90;99.90;;;;;;5051861;28;20478;-79
2022/04/29 05:56:29;;;;;;;13.33;9.57;;;8.90;99.90;;;;;;5035977;28;20540;-80
2022/04/29 05:58:56;;;;;;;17.83;9.40;;;9.00;99.90;;;;;;5051210;28;20454;-80
2022/04/29 06:01:29;;;;;;;16.17;10.00;;;9.10;99.90;;;;;;5052705;28;20458;-79
2022/04/29 06:04:03;;;;;;;17.50;9.70;;;9.20;99.90;;;;;;5045890;28;21056;-81
2022/04/29 06:06:33;;;;;;;18.50;9.73;;;9.30;99.90;;;;;;5038237;28;20485;-79
2022/04/29 06:09:00;;;;;;;16.97;10.20;;;9.40;99.90;;;;;;5035513;28;20461;-80
2022/04/29 06:11:59;;;;;;;18.47;10.67;;;9.60;99.90;;;;;;5035260;28;20463;-79
2022/04/29 06:14:26;;;;;;;26.77;11.30;;;9.80;99.90;;;;;;5036816;28;20961;-79
2022/04/29 06:16:52;;;;;;;15.20;10.20;;;10.00;99.90;;;;;;5042320;28;20485;-79
2022/04/29 06:19:19;;;;;;;15.90;9.60;;;10.20;99.90;;;;;;5042536;28;20460;-82
2022/04/29 06:21:47;;;;;;;18.70;9.30;;;10.40;99.90;;;;;;5033313;28;20459;-80
2022/04/29 06:24:14;;;;;;;14.70;9.70;;;10.60;99.90;;;;;;5040396;28;20968;-79
2022/04/29 06:26:41;;;;;;;13.93;10.53;;;10.60;99.90;;;;;;5044143;28;21081;-80
2022/04/29 06:29:10;;;;;;;14.60;8.97;;;10.80;99.90;;;;;;5040009;28;20944;-79
2022/04/29 06:31:37;;;;;;;16.30;10.27;;;11.00;99.90;;;;;;5047036;28;20467;-79
2022/04/29 06:34:04;;;;;;;14.97;9.90;;;11.20;99.90;;;;;;5044548;28;20822;-79
2022/04/29 06:36:31;;;;;;;13.10;9.53;;;11.20;99.90;;;;;;5048102;28;20550;-80
2022/04/29 06:38:58;;;;;;;17.00;9.47;;;11.40;99.90;;;;;;5050280;28;20522;-80
2022/04/29 06:41:26;;;;;;;16.63;8.83;;;11.50;99.90;;;;;;5041789;28;20511;-81
2022/04/29 06:43:53;;;;;;;14.23;8.37;;;11.60;99.90;;;;;;5042672;28;20483;-79
2022/04/29 06:46:24;;;;;;;14.03;8.60;;;12.00;99.90;;;;;;5041191;28;20453;-79
2022/04/29 06:48:52;;;;;;;13.30;9.03;;;12.00;99.90;;;;;;5040791;28;20444;-79
2022/04/29 06:51:19;;;;;;;16.60;8.73;;;12.10;99.90;;;;;;5043541;28;20488;-79
2022/04/29 06:53:46;;;;;;;17.70;9.40;;;12.20;99.90;;;;;;5045028;28;20892;-80
2022/04/29 06:56:13;;;;;;;18.20;8.63;;;12.60;99.90;;;;;;5052756;28;20506;-80
2022/04/29 06:58:42;;;;;;;11.70;8.83;;;12.60;99.90;;;;;;5050988;28;20478;-81
2022/04/29 07:01:09;;;;;;;13.60;8.87;;;12.60;99.90;;;;;;5033018;28;20477;-80
2022/04/29 07:03:38;;;;;;;12.40;8.70;;;12.50;99.90;;;;;;5037299;28;20471;-80
2022/04/29 07:06:06;;;;;;;19.43;9.07;;;12.40;99.90;;;;;;5044297;28;20445;-80
2022/04/29 07:08:33;;;;;;;12.13;8.33;;;12.30;99.90;;;;;;5036203;28;20452;-81
2022/04/29 07:11:00;;;;;;;11.73;8.60;;;12.20;99.90;;;;;;5032798;28;20455;-81
2022/04/29 07:13:26;;;;;;;13.10;8.50;;;11.80;99.90;;;;;;5052090;28;21003;-79
2022/04/29 07:15:53;;;;;;;12.27;8.77;;;11.80;99.90;;;;;;5038886;28;20484;-79
2022/04/29 07:18:21;;;;;;;13.63;10.00;;;11.80;99.90;;;;;;5025294;28;20842;-81
2022/04/29 07:20:49;;;;;;;9.17;7.80;;;11.70;99.90;;;;;;5014829;28;20528;-79
2022/04/29 07:23:16;;;;;;;13.20;9.13;;;11.80;99.90;;;;;;5026515;28;20458;-79
2022/04/29 07:25:42;;;;;;;14.27;8.80;;;12.00;99.90;;;;;;5049219;28;20456;-81
2022/04/29 07:28:09;;;;;;;20.10;8.60;;;12.20;99.90;;;;;;5055557;28;20454;-80
2022/04/29 07:30:36;;;;;;;11.30;8.30;;;12.50;99.90;;;;;;5036230;28;20456;-80
2022/04/29 07:33:03;;;;;;;13.50;9.27;;;12.60;99.90;;;;;;5037965;28;20449;-78
2022/04/29 07:43:44;;;;;;;17.57;9.17;;;13.50;99.90;;;;;;5050464;28;20574;-81
2022/04/29 07:46:11;;;;;;;13.87;8.67;;;13.70;99.90;;;;;;5051370;28;20460;-80
2022/04/29 07:48:38;;;;;;;18.40;7.80;;;14.00;99.90;;;;;;5048517;28;20454;-81
2022/04/29 07:51:06;;;;;;;14.13;7.80;;;14.50;99.90;;;;;;5046901;28;20436;-80
2022/04/29 07:53:35;;;;;;;14.70;8.00;;;15.00;99.90;;;;;;5049845;28;20465;-80
2022/04/29 07:56:02;;;;;;;14.70;8.50;;;15.10;99.90;;;;;;5053087;28;20487;-79
2022/04/29 07:58:29;;;;;;;10.50;7.27;;;15.40;99.90;;;;;;5053692;28;20463;-79
2022/04/29 08:00:57;;;;;;;13.83;7.60;;;15.80;99.90;;;;;;5054110;28;20463;-79
2022/04/29 08:03:25;;;;;;;12.23;7.47;;;16.40;99.90;;;;;;5050776;28;20546;-81
2022/04/29 08:05:52;;;;;;;13.70;8.50;;;16.50;99.90;;;;;;5049662;28;20461;-80
2022/04/29 08:08:20;;;;;;;15.10;7.97;;;16.80;99.90;;;;;;5044707;28;20460;-79
2022/04/29 08:10:49;;;;;;;11.37;7.20;;;17.80;99.90;;;;;;5042074;28;20461;-80
2022/04/29 08:13:16;;;;;;;11.40;7.50;;;18.30;99.90;;;;;;5038627;28;20456;-80
2022/04/29 08:15:45;;;;;;;12.93;7.50;;;18.70;99.90;;;;;;5047815;28;20463;-79
2022/04/29 08:18:13;;;;;;;9.20;6.80;;;19.30;99.90;;;;;;5042419;28;20544;-80
2022/04/29 08:20:40;;;;;;;11.43;7.90;;;19.20;99.90;;;;;;5047310;28;20832;-80
2022/04/29 08:23:09;;;;;;;16.57;8.47;;;18.30;99.90;;;;;;5048333;28;20444;-79
2022/04/29 08:25:36;;;;;;;13.13;6.97;;;17.90;99.90;;;;;;5052633;28;20454;-80
2022/04/29 08:28:05;;;;;;;11.30;7.03;;;17.20;99.90;;;;;;5038479;28;20440;-81
2022/04/29 08:30:32;;;;;;;10.47;7.27;;;16.60;99.90;;;;;;5048531;28;20656;-78
2022/04/29 08:33:00;;;;;;;12.83;6.50;;;16.10;99.90;;;;;;5050517;28;20470;-80
2022/04/29 08:35:28;;;;;;;15.67;8.27;;;15.90;99.90;;;;;;5051723;28;21029;-78
2022/04/29 08:37:56;;;;;;;9.17;7.23;;;15.40;99.90;;;;;;5051704;28;20496;-79
2022/04/29 08:40:24;;;;;;;11.53;7.10;;;15.20;99.90;;;;;;5049996;28;20454;-79
2022/04/29 08:42:53;;;;;;;11.10;7.10;;;15.10;99.90;;;;;;5052042;28;20467;-79
2022/04/29 08:45:21;;;;;;;10.70;7.23;;;15.10;99.90;;;;;;5050075;28;20479;-80
2022/04/29 08:47:48;;;;;;;9.63;6.33;;;15.20;99.90;;;;;;5048279;28;20523;-79
2022/04/29 08:50:17;;;;;;;12.60;7.83;;;15.30;99.90;;;;;;5047688;28;20453;-81
2022/04/29 08:52:45;;;;;;;10.23;7.47;;;15.40;99.90;;;;;;5053738;28;20467;-79
2022/04/29 09:00:44;;;;;;;14.60;8.87;;;15.00;99.90;;;;;;5056753;28;20497;-78
2022/04/29 09:03:14;;;;;;;15.23;10.20;;;14.60;99.90;;;;;;5056623;28;20547;-77
2022/04/29 09:05:41;;;;;;;14.97;8.90;;;14.50;99.90;;;;;;5056801;28;20986;-77
2022/04/29 09:08:08;;;;;;;14.30;9.13;;;14.80;99.90;;;;;;5053085;28;20456;-79
2022/04/29 09:10:36;;;;;;;12.90;9.17;;;15.10;99.90;;;;;;5056592;28;20473;-79
2022/04/29 09:13:14;;;;;;;14.67;9.90;;;15.40;99.90;;;;;;5055448;28;20452;-79
2022/04/29 09:15:49;;;;;;;10.70;8.90;;;15.60;99.90;;;;;;5052815;28;20462;-79
2022/04/29 09:18:33;;;;;;;14.93;10.30;;;16.00;99.90;;;;;;5056043;28;20527;-80
2022/04/29 09:21:00;;;;;;;21.07;10.83;;;16.50;99.90;;;;;;5055752;28;20460;-80
2022/04/29 09:23:28;;;;;;;12.70;10.10;;;17.00;99.90;;;;;;5046317;28;20480;-79
2022/04/29 09:25:56;;;;;;;18.03;13.20;;;17.60;99.90;;;;;;5053356;28;21321;-78
2022/04/29 09:28:24;;;;;;;15.50;10.63;;;18.20;99.90;;;;;;5050604;28;20451;-78
2022/04/29 09:30:55;;;;;;;16.90;11.70;;;19.10;99.90;;;;;;5055819;28;20448;-79
2022/04/29 09:33:23;;;;;;;14.60;10.70;;;20.00;99.90;;;;;;5056303;28;20452;-82
2022/04/29 09:35:50;;;;;;;17.17;11.33;;;20.70;99.90;;;;;;5045178;28;20511;-79
2022/04/29 09:41:03;;;;;;;16.10;11.53;;;21.30;99.90;;;;;;5047855;28;20447;-78
2022/04/29 09:43:35;;;;;;;15.50;11.97;;;21.80;99.90;;;;;;5046774;28;20479;-80
2022/04/29 09:46:24;;;;;;;15.03;11.30;;;22.00;99.90;;;;;;5049721;28;20484;-80
2022/04/29 09:48:59;;;;;;;17.47;10.53;;;21.70;99.90;;;;;;5052349;28;20473;-80
2022/04/29 09:51:46;;;;;;;12.00;9.57;;;21.00;99.90;;;;;;5054228;28;20453;-80
2022/04/29 09:54:30;;;;;;;18.17;11.53;;;20.20;99.90;;;;;;5049903;28;20847;-80
2022/04/29 09:57:06;;;;;;;13.43;9.70;;;18.90;99.90;;;;;;5048079;28;20500;-81
2022/04/29 09:59:34;;;;;;;11.83;8.63;;;18.50;99.90;;;;;;5048587;28;20532;-81
2022/04/29 10:02:04;;;;;;;13.60;8.40;;;18.50;99.90;;;;;;5050388;28;20449;-79
2022/04/29 10:04:34;;;;;;;12.90;8.87;;;18.30;99.90;;;;;;5050540;28;20533;-79
2022/04/29 10:07:03;;;;;;;14.87;8.17;;;17.80;99.90;;;;;;5055325;28;20448;-78
2022/04/29 10:09:32;;;;;;;13.40;7.80;;;17.70;99.90;;;;;;5054268;28;21000;-80
2022/04/29 10:12:00;;;;;;;15.93;8.07;;;17.50;99.90;;;;;;5054526;28;20454;-80
2022/04/29 10:14:29;;;;;;;11.17;7.70;;;17.50;99.90;;;;;;5048661;28;20476;-78
2022/04/29 10:22:35;;;;;;;13.30;8.17;;;18.60;99.90;;;;;;5052376;28;21053;-80
2022/04/29 10:25:07;;;;;;;12.67;7.80;;;18.80;99.90;;;;;;5045746;28;20571;-79
2022/04/29 10:27:35;;;;;;;13.77;7.63;;;18.70;99.90;;;;;;5045833;28;20450;-81
2022/04/29 10:30:02;;;;;;;13.87;7.23;;;18.50;99.90;;;;;;5045605;28;20834;-79
2022/04/29 10:32:30;;;;;;;14.30;6.50;;;19.00;99.90;;;;;;5055545;28;20471;-81
2022/04/29 10:34:58;;;;;;;12.37;5.93;;;19.70;99.90;;;;;;5054139;28;20469;-80
2022/04/29 10:37:37;;;;;;;6.10;5.50;;;20.60;99.90;;;;;;5043505;28;20492;-80
2022/04/29 10:40:12;;;;;;;8.77;5.23;;;21.20;99.90;;;;;;5047543;28;20507;-80
2022/04/29 10:43:05;;;;;;;10.37;6.50;;;22.00;99.90;;;;;;5050931;28;20487;-80
2022/04/29 10:45:31;;;;;;;12.47;6.70;;;21.70;99.90;;;;;;5052979;28;20452;-80
2022/04/29 10:47:58;;;;;;;7.60;6.00;;;21.10;99.90;;;;;;5052197;28;20478;-80
2022/04/29 10:50:39;;;;;;;9.43;6.47;;;21.60;99.90;;;;;;5049973;28;20459;-79
2022/04/29 10:53:07;;;;;;;11.33;6.33;;;20.80;99.90;;;;;;5051941;28;20460;-79
2022/04/29 10:55:33;;;;;;;11.70;6.30;;;20.30;99.90;;;;;;5051554;28;20454;-82
2022/04/29 10:58:18;;;;;;;10.57;6.17;;;19.70;99.90;;;;;;5053127;28;20489;-80
2022/04/29 11:00:55;;;;;;;11.53;6.30;;;19.80;99.90;;;;;;5052270;28;20453;-81
2022/04/29 11:03:38;;;;;;;9.50;6.40;;;19.80;99.90;;;;;;5039841;28;20458;-80
2022/04/29 11:06:11;;;;;;;11.90;5.90;;;19.30;99.90;;;;;;5035755;28;20458;-80
2022/04/29 11:08:38;;;;;;;11.20;6.50;;;19.30;99.90;;;;;;5051905;28;20533;-80
2022/04/29 11:11:06;;;;;;;9.83;6.00;;;19.10;99.90;;;;;;5052317;28;20459;-82
2022/04/29 11:13:37;;;;;;;10.63;6.57;;;19.30;99.90;;;;;;5048002;28;20471;-80
2022/04/29 11:16:25;;;;;;;14.90;6.13;;;19.60;99.90;;;;;;5048370;28;20449;-82
2022/04/29 11:19:21;;;;;;;10.60;6.97;;;19.70;99.90;;;;;;5050309;28;20487;-81
2022/04/29 11:24:43;;;;;;;16.40;7.67;;;19.40;99.90;;;;;;5044885;28;20554;-81
2022/04/29 11:27:11;;;;;;;14.20;5.77;;;19.50;99.90;;;;;;5045811;28;20445;-80
2022/04/29 11:29:43;;;;;;;12.37;6.90;;;20.00;99.90;;;;;;5052777;28;20877;-80
2022/04/29 11:32:10;;;;;;;9.33;5.43;;;20.60;99.90;;;;;;5050817;28;20458;-81
2022/04/29 11:34:50;;;;;;;11.50;6.47;;;21.30;99.90;;;;;;5052921;28;20480;-82
2022/04/29 11:37:24;;;;;;;11.63;6.20;;;21.20;99.90;;;;;;5049876;28;20501;-80
2022/04/29 11:39:52;;;;;;;8.30;4.60;;;21.20;99.90;;;;;;5053099;28;20460;-80
2022/04/29 11:42:20;;;;;;;9.03;5.93;;;21.20;99.90;;;;;;5052062;28;20467;-81
2022/04/29 11:44:49;;;;;;;9.63;6.50;;;21.20;99.90;;;;;;5052225;28;20486;-79
2022/04/29 11:47:23;;;;;;;10.60;6.47;;;21.80;99.90;;;;;;5051999;28;20449;-79
2022/04/29 11:49:51;;;;;;;11.30;6.60;;;22.90;99.90;;;;;;5046949;28;20905;-80
2022/04/29 11:52:18;;;;;;;9.33;5.77;;;23.50;99.90;;;;;;5051731;28;20906;-82
2022/04/29 11:54:58;;;;;;;6.83;6.07;;;23.90;99.90;;;;;;5045408;28;20475;-79
2022/04/29 11:57:27;;;;;;;15.30;6.90;;;25.00;99.90;;;;;;5044152;28;21012;-80
2022/04/29 11:59:54;;;;;;;11.00;6.63;;;25.10;99.90;;;;;;5053889;28;20956;-81
2022/04/29 12:02:22;;;;;;;9.43;5.47;;;24.40;99.90;;;;;;5053192;28;20455;-82
2022/04/29 12:04:57;;;;;;;8.97;5.97;;;25.30;99.90;;;;;;5052621;28;20507;-81
2022/04/29 12:07:24;;;;;;;8.13;6.27;;;25.80;99.90;;;;;;5039651;28;20532;-81
2022/04/29 12:09:52;;;;;;;9.40;5.93;;;25.50;99.80;;;;;;5053686;28;20456;-81
2022/04/29 12:12:28;;;;;;;8.37;5.30;;;25.10;98.30;;;;;;5044372;28;20456;-80
2022/04/29 12:15:12;;;;;;;10.10;5.57;;;24.20;99.90;;;;;;5039039;28;20480;-79
2022/04/29 12:17:41;;;;;;;6.73;4.93;;;24.00;97.80;;;;;;5049905;28;20570;-80
2022/04/29 12:20:10;;;;;;;10.97;5.37;;;24.30;99.90;;;;;;5043961;28;20476;-81
2022/04/29 12:22:42;;;;;;;9.10;6.87;;;24.70;99.90;;;;;;5043546;28;20543;-82
2022/04/29 12:25:30;;;;;;;13.63;5.67;;;24.30;97.60;;;;;;5047339;28;20507;-81
2022/04/29 12:28:13;;;;;;;10.10;6.27;;;24.40;99.00;;;;;;5048228;28;20459;-79
2022/04/29 12:36:33;;;;;;;8.00;5.97;;;22.40;96.80;;;;;;5041872;28;20455;-81
2022/04/29 12:39:11;;;;;;;9.90;5.80;;;21.90;97.10;;;;;;5043753;28;20999;-80
2022/04/29 12:41:38;;;;;;;9.73;5.77;;;22.40;98.50;;;;;;5046951;28;20445;-81
2022/04/29 12:44:10;;;;;;;8.67;5.30;;;22.60;97.20;;;;;;5044032;28;21008;-81
2022/04/29 12:46:41;;;;;;;9.50;5.23;;;22.90;96.20;;;;;;5049346;28;20452;-82
2022/04/29 12:49:22;;;;;;;8.40;4.93;;;23.20;98.00;;;;;;5047150;28;20517;-81
2022/04/29 12:51:58;;;;;;;8.33;5.63;;;23.20;96.60;;;;;;5045919;28;20509;-81
2022/04/29 12:54:32;;;;;;;8.00;5.30;;;23.40;96.90;;;;;;5045417;28;20475;-81
2022/04/29 12:56:59;;;;;;;6.70;4.90;;;22.80;96.80;;;;;;5044658;28;20461;-80
2022/04/29 12:59:28;;;;;;;7.37;5.40;;;22.30;97.00;;;;;;5042800;28;20481;-81
2022/04/29 13:01:55;;;;;;;8.13;5.37;;;21.40;98.40;;;;;;5043998;28;20467;-81
2022/04/29 13:04:22;;;;;;;9.87;5.63;;;20.20;98.10;;;;;;5043297;28;20475;-79
2022/04/29 13:06:49;;;;;;;10.03;6.23;;;20.40;99.90;;;;;;5046482;28;20444;-79
2022/04/29 13:09:15;;;;;;;9.23;6.10;;;20.00;99.60;;;;;;5042649;28;20444;-79
2022/04/29 13:11:45;;;;;;;7.83;5.60;;;19.90;99.90;;;;;;5044874;28;20448;-79
2022/04/29 13:14:16;;;;;;;10.73;6.30;;;19.40;99.90;;;;;;5043532;28;20511;-79
2022/04/29 13:16:45;;;;;;;11.90;6.00;;;19.40;99.90;;;;;;5044477;28;20518;-79
2022/04/29 13:19:12;;;;;;;8.90;6.50;;;19.30;99.90;;;;;;5042314;28;20486;-80
2022/04/29 13:21:39;;;;;;;12.00;5.90;;;19.20;99.90;;;;;;5044368;28;20460;-81
2022/04/29 13:24:07;;;;;;;13.47;6.73;;;18.90;99.90;;;;;;5048741;28;20491;-81
2022/04/29 13:26:34;;;;;;;9.73;6.77;;;18.70;99.90;;;;;;5047601;28;20980;-81
2022/04/29 13:29:01;;;;;;;7.80;6.43;;;18.60;99.90;;;;;;5044575;28;20436;-80